Terminal Aerodrome Forecast
Issued by NWS Wilmington, OH

Current Version | Previous Version | Text Only | Print | Product List | Glossary Off
Versions: 1 2 3 4 5 6 7 8 9 10 11 12 13 14 15 16

000
FTUS41 KILN 200500 AAA
TAFCMH
TAF AMD
KCMH 200522Z 2005/2024 33008KT P6SM BKN030
     FM200800 35006KT P6SM BKN250
     FM201200 01007KT P6SM BKN150
     FM202000 03007KT P6SM BKN100 OVC150=

USA.gov is the U.S. government's official web portal to all federal, state and local government web resources and services.